Terminal Aerodrome Forecast
Issued by NWS

Home | Current Version | Previous Version | Text Only | Print | Product List | Glossary On
Versions: 1 2 3 4 5 6 7 8 9 10 11 12 13 14 15 16
000
FTUS43 KEAX 281700
TAFSTJ
TAF
KSTJ 281720Z 2818/2918 20016G25KT P6SM SCT250
     FM282300 26009KT P6SM FEW200
     FM290400 31022G30KT P6SM BKN020=

USA.gov is the U.S. government's official web portal to all federal, state and local government web resources and services.